Flight Track Log - Related Links

Times and Time Zones

All times are in EDT time to prevent confusion due to time zone crossing. See the SWA1377 flight status page for this flight to view local times or setup timezone preferences in your user account.

Time Position Orientation Groundspeed Altitude Reporting Facility
EDT Latitude Longitude Course Direction KTS MPH feet Rate Location/Type
Wed 07:10:20 AM 29.5464 -98.4467 39° Northeast 165 190 1,600  Level Houston Center
Wed 07:10:39 AM 29.5606 -98.4336 39° Northeast 173 199 2,400 2,775 Climbing Houston Center
Wed 07:11:40 AM 29.6122 -98.3967 32° Northeast 233 268 5,300 3,393 Climbing Houston Center
Wed 07:12:41 AM 29.6883 -98.3961 360° North 274 315 9,300 3,372 Climbing Houston Center
Wed 07:13:41 AM 29.7731 -98.3953 360° North 322 371 12,100 3,322 Climbing Houston Center
Wed 07:14:42 AM 29.8747 -98.3944 360° North 343 395 16,000 3,836 Climbing Houston Center
Wed 07:15:43 AM 29.9697 -98.3669 14° North 356 410 19,900 3,197 Climbing Houston Center
Wed 07:16:44 AM 30.0661 -98.3289 19° North 364 419 22,500 2,656 Climbing Houston Center
Wed 07:17:45 AM 30.1697 -98.2872 19° North 391 450 25,300 2,529 Climbing Houston Center
Wed 07:18:45 AM 30.2764 -98.2453 19° North 403 464 27,600 2,083 Climbing Houston Center
Wed 07:19:46 AM 30.3744 -98.2067 19° North 418 481 29,500 1,869 Climbing Houston Center
Wed 07:20:47 AM 30.4889 -98.1622 19° North 427 491 31,400 2,016 Climbing Houston Center
Wed 07:21:48 AM 30.6033 -98.1158 19° North 429 494 33,600 1,918 Climbing Houston Center
Wed 07:22:49 AM 30.7175 -98.0703 19° North 429 494 35,300 1,426 Climbing Houston Center
Wed 07:23:50 AM 30.8347 -98.0242 19° North 435 501 36,500 1,604 Climbing Houston Center
Wed 07:24:30 AM 30.9322 -97.9872 18° North 435 501 38,000 1,680 Climbing Fort Worth Center
Wed 07:25:30 AM 31.0347 -97.9442 20° North 435 501 39,300 1,200 Climbing Fort Worth Center
Wed 07:26:30 AM 31.1497 -97.9011 18° North 435 501 40,400 850 Climbing Fort Worth Center
Wed 07:27:30 AM 31.2625 -97.8533 20° North 429 494 41,000 300 Climbing Fort Worth Center
Wed 07:28:30 AM 31.3775 -97.8075 19° North 429 494 41,000  Level Fort Worth Center
Wed 07:29:30 AM 31.4989 -97.7350 27° Northeast 429 494 41,000  Level Fort Worth Center
Wed 07:30:30 AM 31.6033 -97.6622 31° Northeast 435 501 41,000  Level Fort Worth Center
Wed 07:31:30 AM 31.7081 -97.5892 31° Northeast 435 501 41,000  Level Fort Worth Center
Wed 07:32:30 AM 31.8144 -97.5161 30° Northeast 435 501 41,000  Level Fort Worth Center
Wed 07:33:30 AM 31.9169 -97.4453 30° Northeast 435 501 41,000  Level Fort Worth Center
Wed 07:34:30 AM 32.0044 -97.3792 33° Northeast 430 495 41,000  Level Fort Worth Center
Wed 07:35:30 AM 32.1214 -97.2981 30° Northeast 430 495 41,000  Level Fort Worth Center
Wed 07:36:30 AM 32.2153 -97.2317 31° Northeast 430 495 41,000  Level Fort Worth Center
Wed 07:37:30 AM 32.3319 -97.1503 31° Northeast 430 495 41,000  Level Fort Worth Center
Wed 07:38:30 AM 32.4239 -97.0836 31° Northeast 430 495 41,000  Level Fort Worth Center
Wed 07:39:30 AM 32.5406 -97.0019 31° Northeast 435 501 41,000  Level Fort Worth Center
Wed 07:40:30 AM 32.6361 -96.9322 32° Northeast 441 507 41,000  Level Fort Worth Center
Wed 07:41:30 AM 32.7528 -96.8528 30° Northeast 441 507 41,000  Level Fort Worth Center
Wed 07:42:30 AM 32.8464 -96.7853 31° Northeast 435 501 41,000  Level Fort Worth Center
Wed 07:43:30 AM 32.9525 -96.7078 31° Northeast 440 506 41,000  Level Fort Worth Center
Wed 07:44:30 AM 33.0522 -96.6400 30° Northeast 450 518 41,000  Level Fort Worth Center
Wed 07:45:30 AM 33.1831 -96.5447 31° Northeast 450 518 41,000  Level Fort Worth Center
Wed 07:46:30 AM 33.2869 -96.4692 31° Northeast 445 512 41,000  Level Fort Worth Center
Wed 07:47:30 AM 33.3928 -96.3883 33° Northeast 450 518 41,000  Level Fort Worth Center
Wed 07:48:30 AM 33.4986 -96.3125 31° Northeast 450 518 41,000  Level Fort Worth Center
Wed 07:49:30 AM 33.6064 -96.2339 31° Northeast 450 518 41,000  Level Fort Worth Center
Wed 07:50:30 AM 33.7100 -96.1550 32° Northeast 450 518 41,000  Level Fort Worth Center
Wed 07:51:30 AM 33.8197 -96.0758 31° Northeast 450 518 41,000  Level Fort Worth Center
Wed 07:52:30 AM 33.9211 -95.9992 32° Northeast 439 505 41,000  Level Fort Worth Center
Wed 07:53:30 AM 34.0289 -95.9222 31° Northeast 439 505 41,000  Level Fort Worth Center
Wed 07:54:30 AM 34.1364 -95.8403 32° Northeast 449 517 41,000  Level Fort Worth Center
Wed 07:55:30 AM 34.2419 -95.7628 31° Northeast 449 517 41,000  Level Fort Worth Center
Wed 07:56:30 AM 34.3492 -95.6856 31° Northeast 449 517 41,000  Level Fort Worth Center
Wed 07:57:30 AM 34.4567 -95.6028 32° Northeast 449 517 41,000  Level Fort Worth Center
Wed 07:58:30 AM 34.5578 -95.5300 31° Northeast 457 526 41,000  Level Fort Worth Center
Wed 07:59:30 AM 34.6733 -95.4442 31° Northeast 451 519 41,000  Level Fort Worth Center
Wed 08:01:21 AM 34.8656 -95.3000 32° Northeast 453 521 41,000  Level Memphis Center
Wed 08:02:21 AM 34.9667 -95.2222 32° Northeast 443 510 41,000  Level Memphis Center
Wed 08:03:21 AM 35.0700 -95.1419 32° Northeast 438 504 41,000  Level Memphis Center
Wed 08:04:21 AM 35.1731 -95.0642 32° Northeast 438 504 41,000  Level Memphis Center
Wed 08:05:21 AM 35.2761 -94.9833 33° Northeast 438 504 41,000  Level Memphis Center
Wed 08:06:21 AM 35.3769 -94.9075 32° Northeast 438 504 41,000  Level Memphis Center
Wed 08:07:21 AM 35.4800 -94.8264 33° Northeast 438 504 41,000  Level Memphis Center
Wed 08:08:21 AM 35.5831 -94.7478 32° Northeast 438 504 41,000  Level Memphis Center
Wed 08:09:21 AM 35.6881 -94.6664 32° Northeast 438 504 41,000  Level Memphis Center
Wed 08:10:21 AM 35.7908 -94.5847 33° Northeast 443 510 41,000  Level Memphis Center
Wed 08:11:21 AM 35.8958 -94.5006 33° Northeast 443 510 41,000  Level Memphis Center
Wed 08:12:21 AM 36.0008 -94.4186 32° Northeast 443 510 41,000  Level Memphis Center
Wed 08:13:21 AM 36.1014 -94.3386 33° Northeast 443 510 41,000  Level Memphis Center
Wed 08:14:21 AM 36.2081 -94.2589 31° Northeast 443 510 41,000  Level Memphis Center
Wed 08:16:01 AM 36.3664 -94.1297 33° Northeast 440 506 41,000  Level Kansas City Center
Wed 08:17:02 AM 36.4717 -94.0486 32° Northeast 442 509 41,000  Level Kansas City Center
Wed 08:18:03 AM 36.5725 -93.9667 33° Northeast 434 499 41,000  Level Kansas City Center
Wed 08:19:04 AM 36.6953 -93.8694 32° Northeast 435 501 41,000  Level Kansas City Center
Wed 08:20:06 AM 36.7967 -93.7878 33° Northeast 435 501 41,000  Level Kansas City Center
Wed 08:21:07 AM 36.8933 -93.7100 33° Northeast 432 497 41,000  Level Kansas City Center
Wed 08:22:08 AM 36.9936 -93.6253 34° Northeast 432 497 41,000  Level Kansas City Center
Wed 08:23:09 AM 37.0964 -93.5419 33° Northeast 436 502 41,000  Level Kansas City Center
Wed 08:24:11 AM 37.2011 -93.4594 32° Northeast 440 506 41,000  Level Kansas City Center
Wed 08:25:12 AM 37.3042 -93.3742 33° Northeast 441 507 41,000  Level Kansas City Center
Wed 08:26:13 AM 37.4083 -93.2867 34° Northeast 445 512 41,000  Level Kansas City Center
Wed 08:27:14 AM 37.5047 -93.1956 37° Northeast 434 499 41,000  Level Kansas City Center
Wed 08:28:16 AM 37.6039 -93.1042 36° Northeast 437 503 41,000  Level Kansas City Center
Wed 08:29:17 AM 37.7228 -92.9936 36° Northeast 438 504 41,000  Level Kansas City Center
Wed 08:30:18 AM 37.8203 -92.9019 37° Northeast 433 498 41,000  Level Kansas City Center
Wed 08:31:19 AM 37.9178 -92.8117 36° Northeast 431 496 41,000  Level Kansas City Center
Wed 08:32:21 AM 37.9975 -92.7378 36° Northeast 430 495 41,000  Level Kansas City Center
Wed 08:33:22 AM 38.1136 -92.6267 37° Northeast 433 498 41,000  Level Kansas City Center
Wed 08:34:23 AM 38.2139 -92.5350 36° Northeast 434 499 41,000  Level Kansas City Center
Wed 08:35:25 AM 38.3117 -92.4422 37° Northeast 434 499 41,000  Level Kansas City Center
Wed 08:36:26 AM 38.4106 -92.3475 37° Northeast 438 504 41,000  Level Kansas City Center
Wed 08:37:27 AM 38.5078 -92.2525 37° Northeast 438 504 41,000  Level Kansas City Center
Wed 08:38:29 AM 38.6072 -92.1586 36° Northeast 440 506 41,000  Level Kansas City Center
Wed 08:39:31 AM 38.7047 -92.0644 37° Northeast 439 505 41,000  Level Kansas City Center
Wed 08:40:32 AM 38.8022 -91.9706 37° Northeast 438 504 41,000  Level Kansas City Center
Wed 08:41:33 AM 38.8997 -91.8772 37° Northeast 437 503 41,000  Level Kansas City Center
Wed 08:42:35 AM 38.9964 -91.7831 37° Northeast 435 501 41,000  Level Kansas City Center
Wed 08:43:36 AM 39.1053 -91.6756 37° Northeast 436 502 41,000  Level Kansas City Center
Wed 08:44:38 AM 39.2019 -91.5822 37° Northeast 435 501 41,000 -435 Level Kansas City Center
Wed 08:45:40 AM 39.3011 -91.4847 37° Northeast 443 510 40,100 -927 Descending Kansas City Center
Wed 08:46:41 AM 39.3961 -91.3908 37° Northeast 436 502 39,100 -934 Descending Kansas City Center
Wed 08:47:42 AM 39.4892 -91.2994 37° Northeast 426 490 38,200 -878 Descending Kansas City Center
Wed 08:48:44 AM 39.5839 -91.2053 37° Northeast 426 490 37,300 -878 Descending Kansas City Center
Wed 08:49:45 AM 39.6797 -91.1089 38° Northeast 430 495 36,400 -878 Descending Kansas City Center
Wed 08:50:47 AM 39.7797 -90.9883 43° Northeast 436 502 35,500 -823 Descending Kansas City Center
Wed 08:51:49 AM 39.8628 -90.8828 44° Northeast 437 503 34,700 -780 Descending Kansas City Center
Wed 08:52:50 AM 39.9489 -90.7694 45° Northeast 439 505 33,900 -732 Descending Kansas City Center
Wed 08:53:52 AM 40.0353 -90.6536 46° Northeast 444 511 33,200 -927 Descending Kansas City Center
Wed 08:54:53 AM 40.1411 -90.5153 45° Northeast 447 514 32,000 -1,105 Descending Kansas City Center
Wed 08:55:08 AM 40.1578 -90.4931 46° Northeast 445 512 31,800 -779 Descending Chicago Center
Wed 08:56:10 AM 40.2461 -90.3767 45° Northeast 450 518 31,000 -390 Descending Chicago Center
Wed 08:57:11 AM 40.3317 -90.2608 46° Northeast 445 512 31,000  Level Chicago Center
Wed 08:58:13 AM 40.4178 -90.1444 46° Northeast 445 512 31,000 -1,016 Level Chicago Center
Wed 08:59:15 AM 40.5086 -90.0233 45° Northeast 442 509 28,900 -2,177 Descending Chicago Center
Wed 09:00:17 AM 40.5911 -89.9125 46° Northeast 429 494 26,500 -2,032 Descending Chicago Center
Wed 09:01:19 AM 40.6683 -89.8028 47° Northeast 415 478 24,700 -1,707 Descending Chicago Center
Wed 09:02:20 AM 40.7414 -89.6511 58° Northeast 411 473 23,000 -1,805 Descending Chicago Center
Wed 09:03:22 AM 40.7889 -89.5414 60° Northeast 394 453 21,000 -1,984 Descending Chicago Center
Wed 09:04:24 AM 40.8408 -89.4197 61° Northeast 382 440 18,900 -1,694 Descending Chicago Center
Wed 09:05:26 AM 40.9169 -89.2883 52° Northeast 379 436 17,500 -1,161 Descending Chicago Center
Wed 09:06:28 AM 40.9861 -89.1839 49° Northeast 379 436 16,500 -927 Descending Chicago Center
Wed 09:07:29 AM 41.0472 -89.0931 48° Northeast 369 425 15,600 -1,122 Descending Chicago Center
Wed 09:08:31 AM 41.1272 -88.9694 49° Northeast 369 425 14,200 -1,694 Descending Chicago Center
Wed 09:09:33 AM 41.1928 -88.8683 49° Northeast 365 420 12,100 -1,887 Descending Chicago Center
Wed 09:10:35 AM 41.2544 -88.7692 50° Northeast 353 406 10,300 -1,306 Descending Chicago Center
Wed 09:11:37 AM 41.3125 -88.6831 48° Northeast 319 367 9,400 -1,161 Descending Chicago Center
Wed 09:12:39 AM 41.3656 -88.5986 50° Northeast 301 346 7,900 -1,403 Descending Chicago Center
Wed 09:13:41 AM 41.4192 -88.5161 49° Northeast 297 342 6,500 -919 Descending Chicago Center
Wed 09:14:43 AM 41.4758 -88.4194 52° Northeast 280 322 6,000 -242 Descending Chicago Center
Wed 09:15:45 AM 41.4939 -88.3208 76° East 278 320 6,000  Level Chicago Center
Wed 09:16:47 AM 41.5136 -88.2217 75° East 278 320 6,000 -484 Level Chicago Center
Wed 09:17:49 AM 41.5333 -88.1206 75° East 278 320 5,000 -484 Descending Chicago Center
Wed 09:18:51 AM 41.5533 -88.0183 75° East 281 323 5,000  Level Chicago Center
Wed 09:19:53 AM 41.5739 -87.9172 75° East 280 322 5,000  Level Chicago Center
Wed 09:20:54 AM 41.5936 -87.8172 75° East 280 322 5,000 -341 Level Chicago Center
Wed 09:21:56 AM 41.6325 -87.7136 63° Northeast 272 313 4,300 -818 Descending Chicago Center
Wed 09:22:44 AM 41.6667 -87.6500 54° Northeast 249 287 3,500 -944 Descending Chicago TRACON
Wed 09:23:44 AM 41.7333 -87.6333 11° North 218 251 2,600 -550 Descending Chicago TRACON
Wed 09:24:44 AM 41.7833 -87.6500 346° North 203 234 2,400 -400 Descending Chicago TRACON
Wed 09:25:44 AM 41.8167 -87.6833 323° Northwest 162 186 1,800 -650 Descending Chicago TRACON
Wed 09:26:44 AM 41.8167 -87.7167 270° West 112 129 1,100 -700 Descending Chicago TRACON

Login

Don't have an account? Register now (free) for customized features, flight alerts, and more!